Weather at Licenciado Benito Juarez International Airport

Public forecast

Using degrees Celsius for public forecast. Weather courtesy of forecast.io.

Current aviation weather report (METAR) for Licenciado Benito Juarez International Airport

Retrieved 2021/04/21 08:16 UTC (0 seconds ago):

MMMX 210816Z 05005KT 10SM SKC 15/00 A3030 NOSIG RMK HZY ISOL CI

Aviation forecast (TAF) for Licenciado Benito Juarez International Airport

Forecast is more than 6 hours old.

Retrieved 2021-04-21 00:30 UTC (8 hours ago):

TAF MMMX 202323Z 2100/2206 22005KT P6SM BKN220 TX30/2120Z TN12/2112Z FM210600 22005KT P6SM SKC FM211200 07005KT P6SM SCT220 FM211800 24015KT P6SM SCT220 FM220300 22012KT P6SM SKC